Time;durP1;ratioP1;P1;durP2;ratioP2;P2;SDS_P1;SDS_P2;PMS_P1;PMS_P2;Temp;Humidity;BMP_temperature;BMP_pressure;BME280_temperature;BME280_humidity;BME280_pressure;Samples;Min_cycle;Max_cycle;Signal;HPM_P1;HPM_P2
2022/05/27 00:01:05;;;;;;;10.50;4.32;;;;;;;;;;5113455;28;20040;-74
2022/05/27 00:04:05;;;;;;;11.95;4.55;;;;;;;;;;5074377;28;20060;-74
2022/05/27 00:13:06;;;;;;;14.40;5.10;;;;;;;;;;5073939;28;20045;-74
2022/05/27 00:15:32;;;;;;;14.50;4.95;;;;;;;;;;5074232;28;20098;-74
2022/05/27 00:18:24;;;;;;;;;;;;;;;;;;;;;
2022/05/27 00:20:50;;;;;;;18.55;6.00;;;;;;;;;;5069549;28;20098;-74
2022/05/27 00:23:17;;;;;;;11.27;5.85;;;;;;;;;;5074106;28;20124;-73
2022/05/27 00:25:44;;;;;;;11.82;5.28;;;;;;;;;;5073872;28;20041;-74
2022/05/27 00:28:10;;;;;;;15.05;6.15;;;;;;;;;;5073907;28;20053;-74
2022/05/27 00:30:36;;;;;;;13.88;5.55;;;;;;;;;;5073803;28;20048;-73
2022/05/27 00:33:03;;;;;;;11.65;5.28;;;;;;;;;;5073754;28;20044;-74
2022/05/27 00:35:29;;;;;;;13.85;5.43;;;;;;;;;;5105264;28;20051;-74
2022/05/27 00:37:56;;;;;;;10.18;4.85;;;;;;;;;;5116445;28;20047;-73
2022/05/27 00:40:23;;;;;;;11.93;4.80;;;;;;;;;;5116468;28;20116;-74
2022/05/27 00:42:50;;;;;;;9.73;4.47;;;;;;;;;;5116682;28;20075;-74
2022/05/27 00:45:36;;;;;;;12.27;4.45;;;;;;;;;;5116690;28;20044;-74
2022/05/27 00:48:39;;;;;;;12.38;4.65;;;;;;;;;;5116381;28;20039;-73
2022/05/27 00:51:13;;;;;;;9.02;4.32;;;;;;;;;;5116242;28;20039;-74
2022/05/27 00:53:42;;;;;;;7.22;4.10;;;;;;;;;;5116635;28;20035;-73
2022/05/27 00:56:10;;;;;;;11.18;4.28;;;;;;;;;;5116196;28;20055;-74
2022/05/27 00:58:39;;;;;;;11.05;4.68;;;;;;;;;;5116331;28;20138;-74
2022/05/27 01:01:05;;;;;;;8.82;4.47;;;;;;;;;;5116140;28;20066;-74
2022/05/27 01:03:32;;;;;;;10.05;4.55;;;;;;;;;;5098007;28;20043;-74
2022/05/27 01:06:01;;;;;;;9.15;4.38;;;;;;;;;;5116204;28;20112;-74
2022/05/27 01:08:28;;;;;;;13.13;4.57;;;;;;;;;;5119345;27;20042;-73
2022/05/27 01:11:21;;;;;;;11.40;4.88;;;;;;;;;;5125771;27;20051;-74
2022/05/27 01:14:16;;;;;;;;;;;;;;;;;;;;;
2022/05/27 01:17:18;;;;;;;8.80;4.35;;;;;;;;;;5136799;27;20047;-74
2022/05/27 01:20:18;;;;;;;9.85;4.60;;;;;;;;;;5136646;27;20039;-74
2022/05/27 01:22:50;;;;;;;11.15;4.97;;;;;;;;;;5136525;27;20043;-74
2022/05/27 01:25:35;;;;;;;10.27;5.22;;;;;;;;;;5136511;27;20078;-74
2022/05/27 01:28:12;;;;;;;11.13;5.22;;;;;;;;;;5136257;27;20047;-74
2022/05/27 01:30:57;;;;;;;14.68;6.65;;;;;;;;;;5136128;27;20057;-74
2022/05/27 01:50:53;;;;;;;15.57;6.38;;;;;;;;;;5135941;27;20465;-74
2022/05/27 01:53:32;;;;;;;15.40;6.03;;;;;;;;;;5135973;27;20078;-74
2022/05/27 01:59:42;;;;;;;15.60;6.75;;;;;;;;;;5114756;28;20066;-74
2022/05/27 02:05:53;;;;;;;12.07;5.85;;;;;;;;;;5134780;27;20034;-76
2022/05/27 02:08:19;;;;;;;;;;;;;;;;;;5135652;27;20039;-74
2022/05/27 02:10:59;;;;;;;;;;;;;;;;;;;;;
2022/05/27 02:13:32;;;;;;;11.98;6.97;;;;;;;;;;5130408;27;20059;-74
2022/05/27 02:16:01;;;;;;;14.27;6.10;;;;;;;;;;5135524;27;20043;-74
2022/05/27 02:18:34;;;;;;;18.65;7.22;;;;;;;;;;5134833;27;20043;-75
2022/05/27 02:21:02;;;;;;;17.52;7.30;;;;;;;;;;5134958;27;20122;-74
2022/05/27 02:23:32;;;;;;;17.95;6.75;;;;;;;;;;5134974;27;20043;-73
2022/05/27 02:26:19;;;;;;;21.80;7.50;;;;;;;;;;5134975;27;20125;-73
2022/05/27 02:35:07;;;;;;;19.90;7.75;;;;;;;;;;5051882;28;20044;-71
2022/05/27 02:35:24;;;;;;;17.98;8.07;;;;;;;;;;5064894;27;20043;-69
2022/05/27 02:37:52;;;;;;;15.48;7.47;;;;;;;;;;5135135;27;20039;-70
2022/05/27 02:40:25;;;;;;;22.90;9.05;;;;;;;;;;5135022;27;20180;-71
2022/05/27 02:43:05;;;;;;;21.85;8.18;;;;;;;;;;5135207;27;20050;-73
2022/05/27 02:49:30;;;;;;;17.73;7.50;;;;;;;;;;5135114;27;20053;-73
2022/05/27 02:52:15;;;;;;;17.33;7.78;;;;;;;;;;5134656;27;20066;-75
2022/05/27 02:54:54;;;;;;;20.48;7.25;;;;;;;;;;5134707;27;20043;-73
2022/05/27 02:57:24;;;;;;;20.08;7.60;;;;;;;;;;5134288;27;20055;-74
2022/05/27 02:59:51;;;;;;;21.45;6.72;;;;;;;;;;5134471;27;20122;-74
2022/05/27 03:06:03;;;;;;;14.02;6.18;;;;;;;;;;5134658;27;20046;-74
2022/05/27 03:09:08;;;;;;;28.42;7.97;;;;;;;;;;5134230;27;20086;-73
2022/05/27 03:11:52;;;;;;;20.85;6.55;;;;;;;;;;5050863;28;20044;-73
2022/05/27 03:17:59;;;;;;;18.92;6.72;;;;;;;;;;5051184;28;20122;-73
2022/05/27 03:24:09;;;;;;;24.05;6.72;;;;;;;;;;5051354;28;20031;-74
2022/05/27 03:27:00;;;;;;;19.23;6.32;;;;;;;;;;5051308;28;20053;-74
2022/05/27 03:33:07;;;;;;;17.13;5.82;;;;;;;;;;5031190;28;20063;-73
2022/05/27 03:45:41;;;;;;;21.95;6.18;;;;;;;;;;5010242;28;20089;-73
2022/05/27 03:48:07;;;;;;;16.75;6.15;;;;;;;;;;5011098;28;20056;-75
2022/05/27 03:50:33;;;;;;;20.90;6.65;;;;;;;;;;5011070;28;20503;-75
2022/05/27 03:52:59;;;;;;;21.35;6.40;;;;;;;;;;5011202;28;20128;-76
2022/05/27 03:55:26;;;;;;;20.30;6.13;;;;;;;;;;5010994;28;20042;-76
2022/05/27 03:57:54;;;;;;;28.35;6.55;;;;;;;;;;5011110;28;20440;-74
2022/05/27 04:00:23;;;;;;;23.30;6.50;;;;;;;;;;5010949;28;20050;-74
2022/05/27 04:02:50;;;;;;;31.88;9.02;;;;;;;;;;5011151;28;20133;-74
2022/05/27 04:05:25;;;;;;;21.23;6.18;;;;;;;;;;5010907;28;20163;-74
2022/05/27 04:07:57;;;;;;;27.33;7.53;;;;;;;;;;5011156;28;20042;-74
2022/05/27 04:14:10;;;;;;;30.92;7.40;;;;;;;;;;5050946;28;20032;-74
2022/05/27 04:16:36;;;;;;;25.88;6.13;;;;;;;;;;5050686;28;20103;-74
2022/05/27 04:19:18;;;;;;;21.17;5.88;;;;;;;;;;5101166;28;20103;-74
2022/05/27 04:21:44;;;;;;;26.40;5.80;;;;;;;;;;5134175;28;20085;-74
2022/05/27 04:24:10;;;;;;;18.55;5.70;;;;;;;;;;5134239;28;20046;-74
2022/05/27 04:26:37;;;;;;;18.83;6.03;;;;;;;;;;5133986;28;20111;-74
2022/05/27 04:29:03;;;;;;;29.60;6.07;;;;;;;;;;5133649;28;20047;-75
2022/05/27 04:31:29;;;;;;;26.88;6.13;;;;;;;;;;5133658;28;20047;-74
2022/05/27 04:34:06;;;;;;;26.90;6.47;;;;;;;;;;5133664;28;20112;-74
2022/05/27 04:43:17;;;;;;;27.42;6.13;;;;;;;;;;5133972;28;20026;-74
2022/05/27 04:46:10;;;;;;;17.77;5.63;;;;;;;;;;5132191;28;20069;-73
2022/05/27 04:48:49;;;;;;;23.88;5.97;;;;;;;;;;5136835;27;20051;-73
2022/05/27 04:51:46;;;;;;;19.35;5.60;;;;;;;;;;5137701;27;20051;-74
2022/05/27 04:54:31;;;;;;;21.67;5.18;;;;;;;;;;5137627;27;20095;-74
2022/05/27 05:00:35;;;;;;;30.42;7.50;;;;;;;;;;5137762;27;20037;-73
2022/05/27 05:03:20;;;;;;;22.20;4.95;;;;;;;;;;5118746;27;20144;-74
2022/05/27 05:05:46;;;;;;;21.98;5.47;;;;;;;;;;5137252;27;20043;-73
2022/05/27 05:08:28;;;;;;;22.50;5.80;;;;;;;;;;5137299;27;20050;-73
2022/05/27 05:17:34;;;;;;;20.20;4.40;;;;;;;;;;5137151;27;20043;-73
2022/05/27 05:26:43;;;;;;;29.45;5.97;;;;;;;;;;5053562;28;20503;-75
2022/05/27 05:29:09;;;;;;;19.48;4.05;;;;;;;;;;5053234;28;20049;-76
2022/05/27 05:31:35;;;;;;;19.90;4.10;;;;;;;;;;5053252;28;20049;-76
2022/05/27 05:34:11;;;;;;;19.05;3.72;;;;;;;;;;5053074;28;20095;-73
2022/05/27 05:36:56;;;;;;;18.60;3.95;;;;;;;;;;5052911;28;20094;-73
2022/05/27 05:39:25;;;;;;;16.10;4.32;;;;;;;;;;5052952;28;20088;-73
2022/05/27 05:42:25;;;;;;;21.77;4.30;;;;;;;;;;5052901;28;20138;-74
2022/05/27 05:48:45;;;;;;;;;;;;;;;;;;;;;
2022/05/27 05:55:00;;;;;;;24.75;5.35;;;;;;;;;;4993769;28;20041;-73
2022/05/27 06:01:27;;;;;;;11.85;2.90;;;;;;;;;;4993231;28;20061;-75
2022/05/27 06:04:12;;;;;;;16.27;3.45;;;;;;;;;;5038953;28;20057;-74
2022/05/27 06:09:48;;;;;;;14.43;2.97;;;;;;;;;;5052163;28;20049;-73
2022/05/27 06:12:39;;;;;;;13.43;2.75;;;;;;;;;;5052680;28;20119;-74
2022/05/27 06:15:06;;;;;;;13.88;2.90;;;;;;;;;;5051681;28;20056;-73
2022/05/27 06:20:37;;;;;;;14.20;3.38;;;;;;;;;;5047638;28;20369;-75
2022/05/27 06:23:04;;;;;;;16.45;3.65;;;;;;;;;;5052251;28;20068;-76
2022/05/27 06:25:31;;;;;;;14.02;2.92;;;;;;;;;;5051824;28;20048;-76
2022/05/27 06:36:37;;;;;;;16.95;2.63;;;;;;;;;;5080925;28;20050;-76
2022/05/27 06:39:23;;;;;;;14.23;2.75;;;;;;;;;;5093878;28;20540;-76
2022/05/27 06:42:09;;;;;;;17.35;2.90;;;;;;;;;;5094078;28;20147;-76
2022/05/27 06:44:51;;;;;;;15.10;3.05;;;;;;;;;;5093270;28;20482;-76
2022/05/27 06:47:17;;;;;;;16.58;2.67;;;;;;;;;;5093869;28;20051;-76
2022/05/27 06:49:44;;;;;;;14.07;2.90;;;;;;;;;;5093720;28;20085;-75
2022/05/27 06:52:15;;;;;;;16.63;2.60;;;;;;;;;;5109379;28;20402;-75
2022/05/27 06:58:13;;;;;;;13.15;2.45;;;;;;;;;;5110009;28;20053;-73
2022/05/27 07:00:39;;;;;;;11.38;2.78;;;;;;;;;;5113963;28;20510;-77
2022/05/27 07:03:07;;;;;;;13.25;2.95;;;;;;;;;;5113970;28;20069;-76
2022/05/27 07:05:33;;;;;;;12.02;2.58;;;;;;;;;;5113593;28;20158;-75
2022/05/27 07:07:59;;;;;;;15.30;2.92;;;;;;;;;;5113634;28;20547;-75
2022/05/27 07:10:25;;;;;;;13.60;2.40;;;;;;;;;;5112756;28;20573;-75
2022/05/27 07:12:51;;;;;;;11.75;3.17;;;;;;;;;;5113682;28;20040;-75
2022/05/27 07:15:20;;;;;;;12.65;3.00;;;;;;;;;;5112215;28;20048;-75
2022/05/27 07:17:46;;;;;;;11.23;3.05;;;;;;;;;;5113755;28;20039;-75
2022/05/27 07:20:13;;;;;;;11.50;2.65;;;;;;;;;;5113582;28;20612;-73
2022/05/27 07:22:54;;;;;;;13.00;3.50;;;;;;;;;;5113509;28;20054;-76
2022/05/27 07:25:23;;;;;;;10.77;2.40;;;;;;;;;;5113405;28;20043;-73
2022/05/27 07:27:49;;;;;;;12.43;2.75;;;;;;;;;;5113637;28;20039;-74
2022/05/27 07:30:43;;;;;;;15.85;3.10;;;;;;;;;;5113159;28;20047;-75
2022/05/27 07:33:21;;;;;;;14.05;3.00;;;;;;;;;;5113387;28;20123;-73
2022/05/27 07:39:11;;;;;;;12.15;2.85;;;;;;;;;;5104333;28;20065;-76
2022/05/27 07:41:38;;;;;;;14.23;2.83;;;;;;;;;;5113128;28;20040;-75
2022/05/27 07:44:05;;;;;;;9.77;2.67;;;;;;;;;;5113030;28;20040;-75
2022/05/27 07:46:32;;;;;;;13.82;2.70;;;;;;;;;;5113389;28;20119;-76
2022/05/27 07:48:58;;;;;;;14.38;2.90;;;;;;;;;;5113138;28;20051;-75
2022/05/27 07:51:25;;;;;;;11.90;2.78;;;;;;;;;;5113265;28;20359;-75
2022/05/27 07:53:51;;;;;;;18.52;7.10;;;;;;;;;;5112969;28;20093;-75
2022/05/27 07:56:17;;;;;;;17.73;3.08;;;;;;;;;;5112994;28;20577;-74
2022/05/27 07:58:46;;;;;;;15.77;4.55;;;;;;;;;;5113188;28;20047;-74
2022/05/27 08:01:12;;;;;;;7.43;2.33;;;;;;;;;;5112829;28;20046;-79
2022/05/27 08:03:40;;;;;;;11.10;2.47;;;;;;;;;;5112824;28;20109;-75
2022/05/27 08:06:06;;;;;;;9.40;2.63;;;;;;;;;;5119624;28;20047;-75
2022/05/27 08:08:33;;;;;;;11.52;2.40;;;;;;;;;;5133497;28;20107;-72
2022/05/27 08:11:24;;;;;;;17.23;2.97;;;;;;;;;;5132855;28;20043;-74
2022/05/27 08:17:20;;;;;;;12.57;2.50;;;;;;;;;;5050261;28;20134;-72
2022/05/27 08:20:09;;;;;;;14.60;2.88;;;;;;;;;;5050162;28;20057;-73
2022/05/27 08:22:36;;;;;;;14.57;3.35;;;;;;;;;;5049803;28;20130;-74
2022/05/27 08:32:05;;;;;;;11.57;2.83;;;;;;;;;;5054252;28;20068;-73
2022/05/27 08:40:40;;;;;;;15.98;2.83;;;;;;;;;;5071948;28;20044;-73
2022/05/27 08:43:43;;;;;;;13.40;3.15;;;;;;;;;;5073809;28;20044;-74
2022/05/27 08:46:09;;;;;;;16.23;2.45;;;;;;;;;;5073672;28;20048;-74
2022/05/27 08:48:53;;;;;;;10.02;2.45;;;;;;;;;;5073409;28;20084;-73
2022/05/27 08:54:38;;;;;;;11.43;2.40;;;;;;;;;;5136664;27;20122;-73
2022/05/27 09:00:00;;;;;;;8.02;1.70;;;;;;;;;;5136767;27;20035;-74
2022/05/27 09:02:45;;;;;;;7.40;1.70;;;;;;;;;;5136807;27;20061;-74
2022/05/27 09:05:21;;;;;;;9.63;1.73;;;;;;;;;;5133672;27;20042;-74
2022/05/27 09:11:27;;;;;;;21.80;3.72;;;;;;;;;;5131750;27;20068;-74
2022/05/27 09:17:29;;;;;;;9.70;2.05;;;;;;;;;;5133910;27;20039;-74
2022/05/27 09:20:13;;;;;;;10.70;2.65;;;;;;;;;;5132248;27;20039;-73
2022/05/27 09:26:32;;;;;;;11.65;1.80;;;;;;;;;;5136748;27;20109;-73
2022/05/27 09:29:16;;;;;;;10.50;2.05;;;;;;;;;;5136312;27;20039;-75
2022/05/27 09:31:55;;;;;;;;;;;;;;;;;;;;;
2022/05/27 09:34:29;;;;;;;10.98;2.40;;;;;;;;;;5131984;27;20051;-73
2022/05/27 09:39:59;;;;;;;13.18;2.63;;;;;;;;;;5135637;27;20055;-75
2022/05/27 09:42:39;;;;;;;9.68;2.03;;;;;;;;;;5135454;27;20049;-74
2022/05/27 09:45:06;;;;;;;13.57;1.83;;;;;;;;;;5127273;27;20054;-75
2022/05/27 09:47:34;;;;;;;11.65;2.03;;;;;;;;;;5115475;28;20058;-75
2022/05/27 09:50:01;;;;;;;10.93;2.03;;;;;;;;;;5115228;28;20039;-75
2022/05/27 09:52:55;;;;;;;10.75;2.75;;;;;;;;;;5115323;28;20130;-73
2022/05/27 09:58:29;;;;;;;13.60;2.85;;;;;;;;;;5114765;28;20555;-73
2022/05/27 10:01:22;;;;;;;13.10;1.90;;;;;;;;;;5128552;27;20047;-72
2022/05/27 10:04:07;;;;;;;4.70;1.35;;;;;;;;;;5135600;27;20062;-74
2022/05/27 10:10:28;;;;;;;7.63;1.67;;;;;;;;;;5135625;27;20062;-74
2022/05/27 10:12:58;;;;;;;8.23;2.00;;;;;;;;;;5135499;27;20043;-73
2022/05/27 10:15:32;;;;;;;7.85;1.30;;;;;;;;;;5135224;27;20075;-75
2022/05/27 10:21:11;;;;;;;8.73;1.70;;;;;;;;;;5131802;27;20061;-74
2022/05/27 10:23:59;;;;;;;8.52;1.80;;;;;;;;;;5134731;27;20100;-74
2022/05/27 10:26:29;;;;;;;11.85;1.70;;;;;;;;;;5131622;27;20057;-73
2022/05/27 10:29:16;;;;;;;7.90;1.80;;;;;;;;;;5134728;27;20073;-75
2022/05/27 10:34:46;;;;;;;10.93;2.22;;;;;;;;;;5131847;27;20039;-75
2022/05/27 10:37:32;;;;;;;6.03;1.70;;;;;;;;;;5134857;27;20494;-75
2022/05/27 10:40:16;;;;;;;7.32;1.63;;;;;;;;;;5134585;27;20050;-76
2022/05/27 10:43:04;;;;;;;13.10;2.10;;;;;;;;;;5134368;27;20062;-74
2022/05/27 10:45:33;;;;;;;12.18;2.67;;;;;;;;;;5134801;27;20046;-74
2022/05/27 10:55:07;;;;;;;22.02;3.30;;;;;;;;;;5051546;28;20496;-74
2022/05/27 11:04:16;;;;;;;8.45;2.03;;;;;;;;;;5050738;28;20577;-74
2022/05/27 11:07:00;;;;;;;10.02;1.98;;;;;;;;;;5053555;28;20128;-74
2022/05/27 11:09:55;;;;;;;;;;;;;;;;;;;;;
2022/05/27 11:15:43;;;;;;;10.15;2.28;;;;;;;;;;5061290;28;20044;-76
2022/05/27 11:18:21;;;;;;;9.82;1.70;;;;;;;;;;5055215;28;20094;-75
2022/05/27 11:20:52;;;;;;;11.48;2.17;;;;;;;;;;5056228;28;20040;-75
2022/05/27 11:23:22;;;;;;;12.65;2.20;;;;;;;;;;5061578;28;20041;-73
2022/05/27 11:26:07;;;;;;;6.13;1.88;;;;;;;;;;5077422;28;20051;-74
2022/05/27 11:32:16;;;;;;;10.00;2.38;;;;;;;;;;5093382;28;20181;-74
2022/05/27 11:35:10;;;;;;;11.18;2.30;;;;;;;;;;5092409;28;20040;-73
2022/05/27 11:41:35;;;;;;;13.18;2.38;;;;;;;;;;5084897;28;20043;-73
2022/05/27 11:44:20;;;;;;;13.05;2.55;;;;;;;;;;5092630;28;20506;-75
2022/05/27 11:46:55;;;;;;;8.10;1.90;;;;;;;;;;5093011;28;20044;-76
2022/05/27 11:49:49;;;;;;;6.22;1.42;;;;;;;;;;5092492;28;20398;-75
2022/05/27 11:52:18;;;;;;;10.50;2.22;;;;;;;;;;5091004;28;20044;-73
2022/05/27 11:55:18;;;;;;;12.05;2.05;;;;;;;;;;5092559;28;20074;-73
2022/05/27 12:01:45;;;;;;;12.77;2.50;;;;;;;;;;5076800;28;20157;-73
2022/05/27 12:04:43;;;;;;;6.85;2.03;;;;;;;;;;5075813;28;20063;-73
2022/05/27 12:07:15;;;;;;;14.00;2.80;;;;;;;;;;5076710;28;20202;-73
2022/05/27 12:13:37;;;;;;;10.77;2.38;;;;;;;;;;5076688;28;20068;-73
2022/05/27 12:22:31;;;;;;;10.00;1.85;;;;;;;;;;5076660;28;20095;-73
2022/05/27 12:25:23;;;;;;;11.13;2.55;;;;;;;;;;5076522;28;20056;-72
2022/05/27 12:27:50;;;;;;;14.65;2.30;;;;;;;;;;5076683;28;20128;-73
2022/05/27 12:30:37;;;;;;;12.05;2.10;;;;;;;;;;5076245;28;20064;-73
2022/05/27 12:39:31;;;;;;;12.10;1.88;;;;;;;;;;5088851;28;20401;-72
2022/05/27 12:42:14;;;;;;;10.50;2.08;;;;;;;;;;5119394;28;20035;-74
2022/05/27 12:44:47;;;;;;;22.17;4.28;;;;;;;;;;5112382;28;20067;-74
2022/05/27 12:47:38;;;;;;;;;;;;;;;;;;;;;
2022/05/27 12:50:48;;;;;;;9.82;2.13;;;;;;;;;;5072481;28;20054;-74
2022/05/27 13:07:03;;;;;;;;;;;;;;;;;;;;;
2022/05/27 13:09:55;;;;;;;10.48;2.28;;;;;;;;;;5061031;27;20127;-74
2022/05/27 13:12:39;;;;;;;9.05;2.40;;;;;;;;;;5123792;27;20052;-74
2022/05/27 13:18:51;;;;;;;11.30;2.55;;;;;;;;;;5121379;27;20389;-75
2022/05/27 13:21:51;;;;;;;9.63;2.50;;;;;;;;;;5123026;27;20058;-73
2022/05/27 13:24:17;;;;;;;10.73;2.00;;;;;;;;;;5123185;27;20031;-75
2022/05/27 13:33:30;;;;;;;25.60;5.93;;;;;;;;;;5037391;28;20120;-73
2022/05/27 13:35:57;;;;;;;14.30;3.00;;;;;;;;;;5045470;28;20148;-76
2022/05/27 13:38:25;;;;;;;13.43;2.67;;;;;;;;;;5048213;28;20057;-76
2022/05/27 13:47:28;;;;;;;11.43;2.47;;;;;;;;;;5051560;28;20040;-74
2022/05/27 13:50:27;;;;;;;11.85;2.40;;;;;;;;;;5040942;28;20060;-74
2022/05/27 13:56:26;;;;;;;15.73;2.95;;;;;;;;;;5002527;28;20049;-75
2022/05/27 13:59:20;;;;;;;9.60;1.73;;;;;;;;;;5045439;28;20055;-74
2022/05/27 14:09:10;;;;;;;8.45;1.88;;;;;;;;;;4999592;28;20156;-74
2022/05/27 14:12:11;;;;;;;;;;;;;;;;;;;;;
2022/05/27 14:17:59;;;;;;;11.02;2.35;;;;;;;;;;5019878;28;20125;-75
2022/05/27 14:20:30;;;;;;;10.50;2.55;;;;;;;;;;5022376;28;20121;-76
2022/05/27 14:22:58;;;;;;;9.85;2.08;;;;;;;;;;5064407;28;20052;-76
2022/05/27 14:25:32;;;;;;;35.77;6.27;;;;;;;;;;5094000;28;20032;-75
2022/05/27 14:28:03;;;;;;;7.82;2.00;;;;;;;;;;5085645;28;20047;-75
2022/05/27 14:34:38;;;;;;;12.90;2.63;;;;;;;;;;5086808;28;20052;-73
2022/05/27 14:37:23;;;;;;;17.70;2.78;;;;;;;;;;5093914;28;20113;-75
2022/05/27 14:39:50;;;;;;;9.52;2.05;;;;;;;;;;5088038;28;20040;-76
2022/05/27 14:42:17;;;;;;;12.98;2.00;;;;;;;;;;5093483;28;20040;-75
2022/05/27 14:44:44;;;;;;;8.38;1.95;;;;;;;;;;5090645;28;20080;-76
2022/05/27 14:47:12;;;;;;;14.43;3.70;;;;;;;;;;5090357;28;20047;-76
2022/05/27 14:49:54;;;;;;;14.57;2.30;;;;;;;;;;5093978;28;20080;-75
2022/05/27 14:52:31;;;;;;;12.13;2.22;;;;;;;;;;5093907;28;20079;-75
2022/05/27 15:00:53;;;;;;;11.00;1.83;;;;;;;;;;5113817;28;20112;-75
2022/05/27 15:03:54;;;;;;;11.32;1.95;;;;;;;;;;5113403;28;20047;-75
2022/05/27 15:06:39;;;;;;;9.27;1.98;;;;;;;;;;5112706;28;20039;-74
2022/05/27 15:12:54;;;;;;;;;;;;;;;;;;;;;
2022/05/27 15:15:44;;;;;;;8.55;2.28;;;;;;;;;;5033745;28;20062;-74
2022/05/27 15:18:35;;;;;;;11.95;2.42;;;;;;;;;;5113122;28;20042;-74
2022/05/27 15:21:03;;;;;;;6.35;1.73;;;;;;;;;;5112834;28;20100;-75
2022/05/27 15:23:34;;;;;;;10.15;2.17;;;;;;;;;;5112495;28;20118;-74
2022/05/27 15:36:00;;;;;;;5.80;1.55;;;;;;;;;;5103293;28;20076;-76
2022/05/27 15:38:28;;;;;;;10.05;2.00;;;;;;;;;;5112512;28;20043;-76
2022/05/27 15:41:26;;;;;;;10.88;1.80;;;;;;;;;;5112723;28;20070;-73
2022/05/27 15:44:11;;;;;;;12.30;2.22;;;;;;;;;;5087745;28;20047;-76
2022/05/27 15:49:41;;;;;;;9.77;1.83;;;;;;;;;;5113058;28;20531;-76
2022/05/27 15:52:07;;;;;;;16.75;3.22;;;;;;;;;;5113299;28;20043;-75
2022/05/27 15:54:33;;;;;;;7.53;1.90;;;;;;;;;;5095264;28;20044;-75
2022/05/27 15:56:59;;;;;;;9.95;1.98;;;;;;;;;;5110434;28;20635;-75
2022/05/27 15:59:26;;;;;;;8.50;1.70;;;;;;;;;;5092509;28;20135;-75
2022/05/27 16:01:52;;;;;;;9.15;1.52;;;;;;;;;;5092939;28;20127;-75
2022/05/27 16:04:46;;;;;;;8.82;1.98;;;;;;;;;;5092487;28;20050;-74
2022/05/27 16:07:24;;;;;;;11.43;2.00;;;;;;;;;;5092320;28;20059;-74
2022/05/27 16:13:13;;;;;;;8.38;2.00;;;;;;;;;;5088388;28;20040;-74
2022/05/27 16:18:59;;;;;;;7.30;1.77;;;;;;;;;;5090115;28;20120;-74
2022/05/27 16:21:26;;;;;;;13.20;1.95;;;;;;;;;;5092229;28;20066;-73
2022/05/27 16:24:04;;;;;;;12.00;2.25;;;;;;;;;;5092050;28;20410;-75
2022/05/27 16:26:42;;;;;;;;;;;;;;;;;;;;;
2022/05/27 16:49:12;;;;;;;;;;;;;;;;;;;;;
2022/05/27 16:52:25;;;;;;;;;;;;;;;;;;;;;
2022/05/27 17:09:36;;;;;;;9.70;1.90;;;;;;;;;;5034389;28;20036;-73
2022/05/27 17:15:29;;;;;;;9.57;1.52;;;;;;;;;;5033460;28;20077;-73
2022/05/27 17:28:13;;;;;;;;;;;;;;;;;;;;;
2022/05/27 17:34:40;;;;;;;10.45;1.75;;;;;;;;;;4930973;29;20055;-73
2022/05/27 17:40:24;;;;;;;10.38;1.80;;;;;;;;;;4919715;29;20044;-73
2022/05/27 18:07:02;;;;;;;9.52;1.55;;;;;;;;;;4769203;30;20458;-74
2022/05/27 18:09:47;;;;;;;6.60;1.42;;;;;;;;;;4781878;29;20130;-73
2022/05/27 18:12:45;;;;;;;12.18;2.13;;;;;;;;;;4841303;29;20557;-73
2022/05/27 18:28:40;;;;;;;;;;;;;;;;;;;;;
2022/05/27 18:32:01;;;;;;;7.63;1.30;;;;;;;;;;4948771;28;20485;-73
2022/05/27 18:41:05;;;;;;;7.38;1.45;;;;;;;;;;5011933;28;20390;-73
2022/05/27 18:57:25;;;;;;;;;;;;;;;;;;;;;
2022/05/27 19:00:37;;;;;;;10.23;1.40;;;;;;;;;;5094458;28;20136;-74
2022/05/27 19:03:50;;;;;;;9.60;1.20;;;;;;;;;;5093028;28;20052;-74
2022/05/27 19:06:53;;;;;;;9.13;1.70;;;;;;;;;;5092558;28;20123;-74
2022/05/27 19:13:08;;;;;;;11.82;1.60;;;;;;;;;;5092558;28;20054;-73
2022/05/27 19:35:40;;;;;;;12.10;1.95;;;;;;;;;;5092772;28;20055;-73
2022/05/27 19:38:28;;;;;;;6.22;1.30;;;;;;;;;;5092536;28;20411;-73
2022/05/27 19:44:30;;;;;;;10.93;1.75;;;;;;;;;;5093355;28;20035;-73
2022/05/27 19:46:57;;;;;;;14.30;1.83;;;;;;;;;;5093067;28;20051;-75
2022/05/27 19:49:24;;;;;;;7.20;1.40;;;;;;;;;;5074641;28;20486;-76
2022/05/27 19:51:52;;;;;;;9.90;1.65;;;;;;;;;;5093037;28;20052;-75
2022/05/27 19:54:18;;;;;;;10.23;1.40;;;;;;;;;;5092979;28;20044;-76
2022/05/27 19:56:45;;;;;;;9.13;1.70;;;;;;;;;;5092904;28;20104;-76
2022/05/27 20:21:53;;;;;;;8.02;1.48;;;;;;;;;;4994734;28;20073;-67
2022/05/27 20:31:22;;;;;;;8.93;1.63;;;;;;;;;;4994534;28;20561;-73
2022/05/27 20:33:55;;;;;;;11.65;1.95;;;;;;;;;;4994541;28;20069;-74
2022/05/27 20:37:17;;;;;;;;;;;;;;;;;;;;;
2022/05/27 20:40:30;;;;;;;8.90;1.50;;;;;;;;;;4994621;28;20053;-74
2022/05/27 20:47:24;;;;;;;10.15;2.30;;;;;;;;;;4955473;29;20123;-74
2022/05/27 20:49:56;;;;;;;11.50;1.95;;;;;;;;;;4954844;29;20130;-74
2022/05/27 20:52:43;;;;;;;11.68;1.80;;;;;;;;;;4955220;29;20111;-74
2022/05/27 20:55:18;;;;;;;9.35;1.95;;;;;;;;;;4955603;29;20527;-75
2022/05/27 21:05:02;;;;;;;;;;;;;;;;;;;;;
2022/05/27 21:10:57;;;;;;;16.17;2.28;;;;;;;;;;4990344;28;20185;-74
2022/05/27 21:13:52;;;;;;;;;;;;;;;;;;;;;
2022/05/27 21:17:09;;;;;;;;;;;;;;;;;;;;;
2022/05/27 21:23:55;;;;;;;9.43;1.92;;;;;;;;;;4994991;28;20114;-74
2022/05/27 21:26:42;;;;;;;16.52;2.90;;;;;;;;;;4993672;28;20076;-74
2022/05/27 21:33:22;;;;;;;11.30;1.63;;;;;;;;;;4898192;29;20478;-74
2022/05/27 21:48:57;;;;;;;;;;;;;;;;;;4898123;29;20052;-74
2022/05/27 21:51:44;;;;;;;12.82;2.10;;;;;;;;;;4930915;29;19974;-74
2022/05/27 21:54:32;;;;;;;11.70;1.50;;;;;;;;;;4948308;28;20051;-73
2022/05/27 21:57:38;;;;;;;10.35;1.83;;;;;;;;;;4954866;28;20093;-74
2022/05/27 22:00:08;;;;;;;10.90;2.10;;;;;;;;;;4953768;28;20054;-74
2022/05/27 22:02:37;;;;;;;13.68;2.15;;;;;;;;;;4967725;28;20087;-74
2022/05/27 22:05:57;;;;;;;10.70;1.80;;;;;;;;;;5032447;28;20084;-73
2022/05/27 22:08:52;;;;;;;;;;;;;;;;;;;;;
2022/05/27 22:15:48;;;;;;;;;;;;;;;;;;;;;
2022/05/27 22:19:10;;;;;;;12.05;1.75;;;;;;;;;;5114890;28;20035;-74
2022/05/27 22:29:08;;;;;;;16.15;2.45;;;;;;;;;;5032058;28;20460;-74
2022/05/27 22:35:14;;;;;;;10.80;2.15;;;;;;;;;;5031992;28;20028;-74
2022/05/27 22:47:19;;;;;;;16.00;2.65;;;;;;;;;;5031390;28;20051;-74
2022/05/27 22:57:23;;;;;;;12.40;1.90;;;;;;;;;;4972918;28;20097;-74
2022/05/27 23:06:53;;;;;;;14.38;2.08;;;;;;;;;;4991996;28;20064;-74
2022/05/27 23:09:56;;;;;;;11.60;1.90;;;;;;;;;;4991914;28;20085;-74
2022/05/27 23:25:42;;;;;;;9.15;2.00;;;;;;;;;;4953437;29;20497;-74
